Time;durP1;ratioP1;P1;durP2;ratioP2;P2;SDS_P1;SDS_P2;PMS_P1;PMS_P2;Temp;Humidity;BMP_temperature;BMP_pressure;BME280_temperature;BME280_humidity;BME280_pressure;Samples;Min_cycle;Max_cycle;Signal;HPM_P1;HPM_P2
2023/02/07 00:00:43;;;;;;;3.30;1.23;;;;;;;-1.22;69.53;103512.69;5063151;28;20044;-77
2023/02/07 00:03:10;;;;;;;3.03;0.85;;;;;;;-1.11;70.37;103525.38;5063390;28;20408;-77
2023/02/07 00:05:39;;;;;;;3.67;0.82;;;;;;;-1.10;70.10;103524.63;5069816;28;20052;-77
2023/02/07 00:08:07;;;;;;;1.75;0.77;;;;;;;-1.13;70.28;103509.91;5067256;28;20478;-77
2023/02/07 00:10:35;;;;;;;3.55;1.00;;;;;;;-1.10;70.50;103519.50;5061899;28;20465;-77
2023/02/07 00:13:02;;;;;;;3.55;1.30;;;;;;;-1.09;70.09;103517.03;5077577;28;20048;-77
2023/02/07 00:15:29;;;;;;;5.28;1.67;;;;;;;-1.08;70.33;103517.91;5071780;28;20052;-76
2023/02/07 00:17:56;;;;;;;4.88;0.75;;;;;;;-1.07;70.25;103528.28;5065861;28;20048;-77
2023/02/07 00:20:24;;;;;;;9.70;1.38;;;;;;;-1.05;70.87;103530.97;5070130;28;20378;-76
2023/02/07 00:22:54;;;;;;;6.05;1.70;;;;;;;-1.04;70.73;103535.31;5062395;28;20045;-77
2023/02/07 00:25:21;;;;;;;4.95;1.80;;;;;;;-1.02;70.18;103531.22;5062453;28;20124;-77
2023/02/07 00:27:48;;;;;;;2.85;0.90;;;;;;;-1.01;70.74;103536.44;5070961;28;20055;-77
2023/02/07 00:30:15;;;;;;;3.50;1.55;;;;;;;-0.99;70.90;103531.44;5067526;28;20049;-77
2023/02/07 00:32:42;;;;;;;3.80;1.52;;;;;;;-0.97;70.86;103529.84;5062977;28;20056;-77
2023/02/07 00:35:09;;;;;;;4.72;2.13;;;;;;;-0.94;70.98;103527.50;5059847;28;20066;-77
2023/02/07 00:37:36;;;;;;;2.80;1.33;;;;;;;-0.92;71.06;103521.72;5064764;28;20056;-76
2023/02/07 00:40:05;;;;;;;3.72;2.05;;;;;;;-0.91;70.95;103526.06;5062356;28;20049;-77
2023/02/07 00:42:32;;;;;;;3.85;1.55;;;;;;;-0.90;71.20;103526.97;5056538;28;20087;-77
2023/02/07 00:44:59;;;;;;;3.58;1.23;;;;;;;-0.86;71.00;103528.94;5062477;28;20067;-77
2023/02/07 00:47:26;;;;;;;5.90;1.42;;;;;;;-0.91;70.83;103510.69;5062916;28;20037;-77
2023/02/07 00:49:53;;;;;;;11.75;1.52;;;;;;;-0.82;71.04;103515.59;5058792;28;20055;-77
2023/02/07 00:52:20;;;;;;;6.60;1.48;;;;;;;-0.81;71.64;103512.22;5063398;28;20036;-77
2023/02/07 00:54:47;;;;;;;10.07;2.40;;;;;;;-0.76;71.55;103521.16;5061475;28;20134;-77
2023/02/07 00:57:15;;;;;;;5.20;1.80;;;;;;;-0.76;71.53;103516.00;5067786;28;20076;-77
2023/02/07 00:59:42;;;;;;;5.15;1.63;;;;;;;-0.71;71.89;103522.38;5059712;28;20041;-77
2023/02/07 01:02:09;;;;;;;3.85;1.60;;;;;;;-0.69;71.68;103525.94;5065159;28;20531;-77
2023/02/07 01:04:36;;;;;;;6.70;1.92;;;;;;;-0.76;71.85;103503.19;5063778;28;20052;-77
2023/02/07 01:07:03;;;;;;;6.78;2.05;;;;;;;-0.63;71.91;103522.03;5065714;28;20420;-77
2023/02/07 01:09:30;;;;;;;9.57;2.30;;;;;;;-0.60;72.39;103527.38;5064164;28;20055;-76
2023/02/07 01:11:57;;;;;;;8.10;2.50;;;;;;;-0.58;71.83;103520.69;5065814;28;20045;-77
2023/02/07 01:14:26;;;;;;;10.73;2.55;;;;;;;-0.55;72.26;103536.31;5057322;28;20417;-77
2023/02/07 01:16:53;;;;;;;10.32;3.25;;;;;;;-0.51;72.27;103538.31;5060407;28;20052;-77
2023/02/07 01:19:20;;;;;;;5.82;2.50;;;;;;;-0.48;72.77;103538.53;5051730;28;20049;-77
2023/02/07 01:21:47;;;;;;;6.55;2.13;;;;;;;-0.48;71.99;103528.25;5064977;28;20437;-77
2023/02/07 01:24:14;;;;;;;7.13;2.85;;;;;;;-0.43;72.84;103524.31;5061359;28;20130;-77
2023/02/07 01:26:41;;;;;;;4.80;2.22;;;;;;;-0.42;72.44;103514.97;5064018;28;20408;-77
2023/02/07 01:29:08;;;;;;;6.47;1.90;;;;;;;-0.37;72.98;103514.50;5064526;28;20045;-77
2023/02/07 01:31:36;;;;;;;7.78;2.25;;;;;;;-0.34;72.93;103501.88;5070558;28;20149;-77
2023/02/07 01:34:03;;;;;;;8.82;2.67;;;;;;;-0.33;73.02;103483.09;5057871;28;20067;-77
2023/02/07 01:36:30;;;;;;;9.48;2.78;;;;;;;-0.29;72.86;103479.94;5062311;28;20040;-77
2023/02/07 01:38:57;;;;;;;8.18;2.95;;;;;;;-0.35;72.55;103453.84;5068256;28;20052;-77
2023/02/07 01:41:27;;;;;;;7.13;2.53;;;;;;;-0.23;72.98;103461.50;5061036;28;20037;-77
2023/02/07 01:43:57;;;;;;;15.88;3.53;;;;;;;-0.21;72.85;103464.19;5061655;28;20048;-77
2023/02/07 01:46:24;;;;;;;7.50;1.77;;;;;;;-0.17;72.59;103463.59;5059231;28;20045;-77
2023/02/07 01:48:54;;;;;;;11.95;3.33;;;;;;;-0.17;72.26;103459.38;5058321;28;20064;-77
2023/02/07 01:51:22;;;;;;;10.82;2.58;;;;;;;-0.13;73.20;103450.19;5057544;28;20037;-76
2023/02/07 01:53:51;;;;;;;7.82;2.50;;;;;;;-0.09;72.88;103452.16;5064030;28;20040;-77
2023/02/07 01:56:18;;;;;;;8.30;2.95;;;;;;;-0.07;72.46;103453.19;5065982;28;20127;-77
2023/02/07 01:58:46;;;;;;;9.88;3.55;;;;;;;-0.04;73.17;103453.38;5068327;28;20044;-77
2023/02/07 02:01:18;;;;;;;10.07;2.42;;;;;;;-0.02;72.88;103444.09;5059599;28;20062;-77
2023/02/07 02:03:50;;;;;;;11.68;3.67;;;;;;;0.01;73.00;103441.75;5060714;28;20049;-77
2023/02/07 02:06:20;;;;;;;7.28;2.53;;;;;;;0.03;72.98;103447.88;5058834;28;20059;-77
2023/02/07 02:08:47;;;;;;;9.60;3.15;;;;;;;0.04;72.98;103457.38;5058135;28;20040;-77
2023/02/07 02:11:27;;;;;;;9.13;2.83;;;;;;;0.08;72.52;103453.31;5059001;28;20055;-77
2023/02/07 02:14:03;;;;;;;9.23;2.65;;;;;;;0.10;72.33;103457.78;5065643;28;20066;-77
2023/02/07 02:16:38;;;;;;;9.20;3.13;;;;;;;0.12;72.70;103456.22;5064512;28;20423;-77
2023/02/07 02:19:38;;;;;;;11.70;2.55;;;;;;;0.15;72.53;103460.66;5064022;28;20052;-78
2023/02/07 02:22:41;;;;;;;8.52;2.83;;;;;;;0.17;72.47;103456.50;5055787;28;20136;-77
2023/02/07 02:25:43;;;;;;;11.98;2.30;;;;;;;0.19;72.81;103452.34;5057178;28;20576;-77
2023/02/07 02:28:29;;;;;;;6.53;1.35;;;;;;;0.20;72.45;103444.75;5062566;28;20131;-77
2023/02/07 02:31:20;;;;;;;9.02;3.75;;;;;;;0.24;73.17;103447.53;5060696;28;20465;-77
2023/02/07 02:34:00;;;;;;;2.78;1.25;;;;;;;0.26;73.07;103436.56;5061500;28;20045;-77
2023/02/07 02:36:35;;;;;;;8.50;2.08;;;;;;;0.27;72.62;103437.44;5050551;28;20139;-77
2023/02/07 02:39:10;;;;;;;10.55;2.47;;;;;;;0.29;72.85;103436.78;5059099;28;20051;-77
2023/02/07 02:41:47;;;;;;;5.85;1.80;;;;;;;0.31;73.07;103434.28;5056434;28;20045;-77
2023/02/07 02:44:19;;;;;;;7.07;2.45;;;;;;;0.33;73.02;103436.16;5059857;28;20051;-77
2023/02/07 02:46:48;;;;;;;6.88;2.03;;;;;;;0.31;73.08;103424.88;5056251;28;20059;-77
2023/02/07 02:49:18;;;;;;;5.53;2.30;;;;;;;0.37;73.09;103429.53;5059860;28;20040;-77
2023/02/07 02:51:49;;;;;;;6.55;2.00;;;;;;;0.39;72.79;103433.09;5051448;28;20051;-77
2023/02/07 02:54:28;;;;;;;10.77;2.08;;;;;;;0.40;73.30;103425.50;5062162;28;20119;-77
2023/02/07 02:57:55;;;;;;;6.43;2.38;;;;;;;0.43;72.34;103435.13;5061339;28;20056;-77
2023/02/07 03:00:50;;;;;;;5.77;2.37;;;;;;;0.44;73.06;103434.31;4966068;28;20050;-77
2023/02/07 03:03:51;;;;;;;14.98;3.00;;;;;;;0.46;72.88;103430.16;5059449;28;20045;-79
2023/02/07 03:06:33;;;;;;;10.95;3.15;;;;;;;0.48;72.81;103438.84;5062677;28;20044;-77
2023/02/07 03:09:15;;;;;;;6.47;1.90;;;;;;;0.48;72.83;103422.53;5062295;28;20055;-77
2023/02/07 03:11:49;;;;;;;7.82;2.10;;;;;;;0.53;73.25;103431.44;5063612;28;20040;-77
2023/02/07 03:14:24;;;;;;;10.07;2.22;;;;;;;0.55;72.79;103430.75;5062630;28;20048;-77
2023/02/07 03:16:58;;;;;;;7.93;2.45;;;;;;;0.57;73.05;103423.13;5052849;28;20044;-77
2023/02/07 03:19:30;;;;;;;7.70;2.75;;;;;;;0.59;73.29;103414.72;5064004;28;20655;-77
2023/02/07 03:22:00;;;;;;;13.68;3.67;;;;;;;0.61;73.38;103415.72;5062159;28;20044;-77
2023/02/07 03:24:31;;;;;;;6.28;2.47;;;;;;;0.63;73.64;103415.84;5061164;28;20492;-77
2023/02/07 03:27:01;;;;;;;15.73;2.60;;;;;;;0.58;72.99;103402.66;5073566;28;20420;-77
2023/02/07 03:29:30;;;;;;;10.52;1.95;;;;;;;0.66;73.27;103416.03;5056404;28;20052;-77
2023/02/07 03:32:00;;;;;;;7.45;2.10;;;;;;;0.69;73.52;103417.91;5059009;28;20052;-77
2023/02/07 03:34:33;;;;;;;8.18;2.22;;;;;;;0.70;73.39;103411.97;5058818;28;20412;-77
2023/02/07 03:37:08;;;;;;;5.63;1.90;;;;;;;0.70;73.25;103417.09;5056708;28;20052;-77
2023/02/07 03:39:35;;;;;;;12.18;2.28;;;;;;;0.74;72.58;103408.78;5057251;28;20051;-77
2023/02/07 03:42:06;;;;;;;8.95;2.08;;;;;;;0.71;73.32;103396.59;5065712;28;20049;-77
2023/02/07 03:44:36;;;;;;;13.45;2.63;;;;;;;0.73;72.74;103400.19;5068143;28;20555;-77
2023/02/07 03:47:04;;;;;;;6.90;2.63;;;;;;;0.78;73.43;103403.06;5057782;28;20060;-77
2023/02/07 03:49:31;;;;;;;10.18;2.00;;;;;;;0.80;72.85;103406.63;5064833;28;20136;-77
2023/02/07 03:51:58;;;;;;;12.45;3.15;;;;;;;0.81;73.27;103401.56;5062199;28;20051;-77
2023/02/07 03:54:26;;;;;;;15.15;3.25;;;;;;;0.83;73.89;103401.69;5058191;28;20053;-77
2023/02/07 03:56:53;;;;;;;13.32;2.53;;;;;;;0.86;73.30;103401.88;5059406;28;20040;-77
2023/02/07 03:59:20;;;;;;;6.63;2.13;;;;;;;0.86;73.77;103395.03;5066048;28;20052;-77
2023/02/07 04:01:47;;;;;;;10.90;2.42;;;;;;;0.88;73.74;103392.53;5061863;28;20048;-77
2023/02/07 04:04:14;;;;;;;7.00;1.95;;;;;;;0.88;73.22;103396.03;5063231;28;20452;-77
2023/02/07 04:06:41;;;;;;;14.68;3.25;;;;;;;0.89;73.95;103384.94;5053164;28;20048;-77
2023/02/07 04:09:08;;;;;;;12.05;3.13;;;;;;;0.91;73.64;103379.88;5052138;28;20409;-77
2023/02/07 04:11:36;;;;;;;10.07;2.17;;;;;;;0.93;73.36;103375.72;5071775;28;20054;-77
2023/02/07 04:14:03;;;;;;;10.52;3.03;;;;;;;0.95;72.98;103381.84;5061621;28;20055;-77
2023/02/07 04:16:30;;;;;;;10.80;2.65;;;;;;;0.96;73.29;103377.59;5058674;28;20057;-77
2023/02/07 04:18:57;;;;;;;16.85;3.08;;;;;;;0.98;73.64;103374.31;5063324;28;20044;-77
2023/02/07 04:21:24;;;;;;;14.52;3.05;;;;;;;1.00;73.52;103369.28;5063161;28;20045;-78
2023/02/07 04:23:51;;;;;;;9.95;2.63;;;;;;;1.00;73.44;103365.03;5065181;28;20489;-78
2023/02/07 04:26:18;;;;;;;10.10;2.28;;;;;;;1.03;73.49;103364.31;5073830;28;20149;-77
2023/02/07 04:28:46;;;;;;;20.70;2.63;;;;;;;1.03;73.94;103362.63;5068720;28;20048;-77
2023/02/07 04:31:13;;;;;;;12.68;2.33;;;;;;;1.06;72.86;103364.50;5060136;28;20048;-78
2023/02/07 04:33:40;;;;;;;10.85;3.00;;;;;;;1.06;73.96;103360.25;5073184;28;20040;-77
2023/02/07 04:36:07;;;;;;;11.40;2.40;;;;;;;1.06;73.65;103359.38;5057709;28;20723;-78
2023/02/07 04:38:34;;;;;;;10.18;2.25;;;;;;;1.08;73.77;103356.09;5059004;28;20059;-78
2023/02/07 04:41:04;;;;;;;7.55;1.60;;;;;;;1.10;73.38;103353.59;5066647;28;20044;-78
2023/02/07 04:43:31;;;;;;;5.80;1.77;;;;;;;1.11;73.16;103353.72;5064138;28;20052;-78
2023/02/07 04:46:00;;;;;;;11.52;2.58;;;;;;;1.12;73.23;103345.19;5071042;28;20052;-77
2023/02/07 04:48:27;;;;;;;12.80;2.50;;;;;;;1.12;73.91;103350.31;5070700;28;20051;-77
2023/02/07 04:50:54;;;;;;;15.73;3.22;;;;;;;1.15;73.49;103341.03;5068990;28;20052;-78
2023/02/07 04:53:21;;;;;;;12.20;3.25;;;;;;;1.16;73.44;103329.91;5073905;28;20052;-78
2023/02/07 04:55:48;;;;;;;11.07;2.40;;;;;;;1.18;73.74;103333.47;5060447;28;20053;-77
2023/02/07 04:58:15;;;;;;;6.25;1.52;;;;;;;1.19;73.81;103335.25;5067591;28;20048;-77
2023/02/07 05:00:42;;;;;;;11.55;1.42;;;;;;;1.21;73.19;103328.50;5061149;28;20048;-77
2023/02/07 05:03:11;;;;;;;12.25;2.60;;;;;;;1.20;73.57;103321.59;5063291;28;20053;-77
2023/02/07 05:05:39;;;;;;;9.20;2.55;;;;;;;1.13;73.78;103316.06;5063723;28;20052;-77
2023/02/07 05:08:06;;;;;;;12.50;2.13;;;;;;;1.22;73.77;103319.97;5073787;28;20048;-77
2023/02/07 05:10:33;;;;;;;6.45;1.50;;;;;;;1.23;73.83;103332.97;5064373;28;20601;-78
2023/02/07 05:13:00;;;;;;;13.85;2.67;;;;;;;1.24;73.94;103327.00;5069499;28;20055;-78
2023/02/07 05:15:27;;;;;;;10.18;1.98;;;;;;;1.26;74.25;103325.44;5069953;28;20055;-78
2023/02/07 05:17:55;;;;;;;10.27;2.22;;;;;;;1.28;73.70;103328.06;5070004;28;20051;-77
2023/02/07 05:20:24;;;;;;;3.97;1.45;;;;;;;1.27;73.78;103323.72;5055002;28;20102;-77
2023/02/07 05:22:51;;;;;;;13.57;2.63;;;;;;;1.28;73.26;103320.34;5061041;28;20055;-78
2023/02/07 05:25:18;;;;;;;10.15;2.30;;;;;;;1.26;73.74;103306.53;5066864;28;20468;-77
2023/02/07 05:27:45;;;;;;;9.80;2.38;;;;;;;1.22;73.57;103297.69;5059788;28;20040;-78
2023/02/07 05:30:13;;;;;;;12.27;2.22;;;;;;;1.30;73.44;103308.47;5062414;28;20077;-79
2023/02/07 05:35:25;;;;;;;6.70;2.05;;;;;;;1.33;73.46;103301.81;5062795;28;20499;-77
2023/02/07 05:37:52;;;;;;;8.27;1.42;;;;;;;1.35;73.96;103301.91;5057598;28;20057;-76
2023/02/07 05:40:19;;;;;;;7.82;2.25;;;;;;;1.34;73.65;103295.00;5059445;28;20584;-77
2023/02/07 05:42:46;;;;;;;11.93;1.73;;;;;;;1.38;73.83;103301.22;5060215;28;20049;-78
2023/02/07 05:45:13;;;;;;;6.28;1.67;;;;;;;1.39;73.74;103293.56;5051970;28;20063;-76
2023/02/07 05:47:40;;;;;;;12.35;2.40;;;;;;;1.34;73.54;103280.44;5060510;28;20047;-77
2023/02/07 05:50:07;;;;;;;15.30;2.33;;;;;;;1.40;73.39;103285.06;5061339;28;20058;-75
2023/02/07 05:52:35;;;;;;;9.25;1.60;;;;;;;1.42;73.46;103277.41;5056593;28;20056;-75
2023/02/07 05:55:03;;;;;;;13.15;3.00;;;;;;;1.43;73.38;103279.19;5056527;28;20050;-75
2023/02/07 05:57:30;;;;;;;13.65;1.98;;;;;;;1.44;73.66;103278.38;5056718;28;20044;-75
2023/02/07 05:59:57;;;;;;;11.02;2.33;;;;;;;1.44;73.65;103287.00;5052808;28;20052;-75
2023/02/07 06:02:24;;;;;;;5.32;1.20;;;;;;;1.44;74.05;103279.28;5056030;28;20059;-75
2023/02/07 06:04:51;;;;;;;8.48;1.85;;;;;;;1.47;74.11;103282.03;5056469;28;20055;-75
2023/02/07 06:07:18;;;;;;;5.75;1.83;;;;;;;1.44;74.34;103276.69;5061147;28;20055;-79
2023/02/07 06:09:46;;;;;;;12.85;2.33;;;;;;;1.51;74.12;103283.13;5063272;28;20047;-78
2023/02/07 06:12:13;;;;;;;13.68;2.58;;;;;;;1.52;74.08;103290.03;5062321;28;20052;-78
2023/02/07 06:14:40;;;;;;;11.23;1.77;;;;;;;1.53;73.81;103281.50;5064406;28;20167;-78
2023/02/07 06:17:07;;;;;;;13.98;2.35;;;;;;;1.54;74.02;103286.75;5064885;28;20044;-78
2023/02/07 06:19:33;;;;;;;4.72;1.85;;;;;;;1.54;74.02;103289.34;5060157;28;20051;-78
2023/02/07 06:22:00;;;;;;;9.48;1.48;;;;;;;1.56;73.62;103287.72;5067749;28;20127;-78
2023/02/07 06:24:27;;;;;;;10.00;1.25;;;;;;;1.58;74.18;103295.53;5063783;28;20037;-77
2023/02/07 06:26:56;;;;;;;6.10;1.20;;;;;;;1.56;73.55;103282.56;5065245;28;20045;-76
2023/02/07 06:29:22;;;;;;;8.93;1.63;;;;;;;1.60;73.33;103282.78;5069875;28;20120;-77
2023/02/07 06:31:49;;;;;;;5.68;1.77;;;;;;;1.61;74.16;103285.41;5060665;28;20400;-77
2023/02/07 06:34:16;;;;;;;16.75;1.85;;;;;;;1.58;74.04;103280.09;5062705;28;20049;-76
2023/02/07 06:36:43;;;;;;;9.23;1.95;;;;;;;1.62;73.83;103292.34;5078723;28;20518;-77
2023/02/07 06:39:10;;;;;;;3.95;0.90;;;;;;;1.64;73.41;103292.44;5069754;28;20420;-76
2023/02/07 06:41:37;;;;;;;8.35;1.15;;;;;;;1.63;73.90;103285.53;5064035;28;20051;-77
2023/02/07 06:44:05;;;;;;;4.32;0.93;;;;;;;1.63;74.42;103283.84;5064779;28;20123;-79
2023/02/07 06:46:32;;;;;;;9.65;1.63;;;;;;;1.61;74.16;103274.22;5063866;28;20052;-78
2023/02/07 06:48:59;;;;;;;7.07;1.42;;;;;;;1.67;73.50;103290.94;5062876;28;20048;-79
2023/02/07 06:51:26;;;;;;;7.55;1.20;;;;;;;1.69;73.30;103283.28;5065374;28;20050;-79
2023/02/07 06:53:53;;;;;;;13.75;1.90;;;;;;;1.62;73.26;103276.00;5073637;28;20052;-79
2023/02/07 06:56:20;;;;;;;3.25;1.02;;;;;;;1.59;73.48;103268.97;5066075;28;20055;-79
2023/02/07 06:58:47;;;;;;;5.07;1.08;;;;;;;1.71;73.62;103287.75;5068243;28;20040;-79
2023/02/07 07:01:18;;;;;;;5.47;1.80;;;;;;;1.72;73.61;103281.78;5065171;28;20071;-81
2023/02/07 07:03:46;;;;;;;5.95;1.35;;;;;;;1.61;73.29;103263.94;5056211;28;20041;-78
2023/02/07 07:06:13;;;;;;;8.27;0.80;;;;;;;1.62;73.75;103271.72;5064234;28;20063;-78
2023/02/07 07:08:40;;;;;;;10.80;1.88;;;;;;;1.74;73.29;103287.91;5057462;28;20123;-77
2023/02/07 07:11:07;;;;;;;10.68;1.13;;;;;;;1.68;73.32;103271.19;5056781;28;20489;-78
2023/02/07 07:13:34;;;;;;;5.50;1.30;;;;;;;1.73;74.02;103272.34;5060040;28;20037;-76
2023/02/07 07:16:01;;;;;;;12.77;3.42;;;;;;;1.77;73.79;103276.91;5066640;28;20049;-77
2023/02/07 07:18:29;;;;;;;8.18;1.10;;;;;;;1.77;73.48;103270.06;5060297;28;20037;-76
2023/02/07 07:20:57;;;;;;;7.20;1.73;;;;;;;1.70;73.82;103264.44;5060531;28;20048;-77
2023/02/07 07:23:24;;;;;;;9.13;0.75;;;;;;;1.79;73.33;103277.84;5065982;28;20045;-76
2023/02/07 07:25:52;;;;;;;6.68;0.98;;;;;;;1.80;73.45;103272.81;5063545;28;20045;-76
2023/02/07 07:28:18;;;;;;;11.50;1.30;;;;;;;1.80;73.31;103267.66;5069496;28;20404;-76
2023/02/07 07:30:45;;;;;;;8.90;1.00;;;;;;;1.81;73.55;103263.38;5059767;28;20051;-76
2023/02/07 07:33:12;;;;;;;11.75;1.42;;;;;;;1.84;73.91;103268.72;5056336;28;20051;-75
2023/02/07 07:35:40;;;;;;;8.70;1.17;;;;;;;1.76;73.52;103260.53;5063484;28;20124;-76
2023/02/07 07:38:07;;;;;;;9.90;1.30;;;;;;;1.85;74.21;103265.34;5060356;28;20040;-76
2023/02/07 07:40:34;;;;;;;10.95;1.48;;;;;;;1.87;73.55;103266.31;5055481;28;20052;-76
2023/02/07 07:43:01;;;;;;;4.75;1.10;;;;;;;1.86;73.43;103261.97;5064202;28;20049;-76
2023/02/07 07:45:28;;;;;;;9.35;1.45;;;;;;;1.89;73.98;103261.25;5060274;28;20045;-77
2023/02/07 07:47:55;;;;;;;9.00;1.05;;;;;;;1.88;73.31;103265.53;5058288;28;20065;-77
2023/02/07 07:50:22;;;;;;;10.10;0.80;;;;;;;1.90;73.50;103257.88;5062957;28;20614;-77
2023/02/07 07:52:50;;;;;;;7.88;0.77;;;;;;;1.91;73.94;103257.97;5066671;28;20123;-77
2023/02/07 07:55:17;;;;;;;10.48;1.45;;;;;;;1.92;73.74;103267.47;5067319;28;20047;-77
2023/02/07 07:57:44;;;;;;;6.70;1.10;;;;;;;1.92;74.03;103262.31;5069761;28;20050;-77
2023/02/07 08:00:12;;;;;;;8.90;1.05;;;;;;;1.93;73.39;103263.19;5066464;28;20054;-77
2023/02/07 08:02:39;;;;;;;6.93;0.80;;;;;;;1.94;73.34;103262.41;5070656;28;20051;-77
2023/02/07 08:05:06;;;;;;;11.07;1.10;;;;;;;1.88;73.61;103244.91;5062073;28;20127;-77
2023/02/07 08:07:33;;;;;;;9.30;1.38;;;;;;;1.96;73.51;103259.13;5068202;28;20040;-78
2023/02/07 08:10:02;;;;;;;12.13;1.40;;;;;;;1.97;74.05;103244.53;5072555;28;20047;-77
2023/02/07 08:12:29;;;;;;;7.60;1.17;;;;;;;1.81;73.84;103219.56;5066068;28;20101;-77
2023/02/07 08:14:55;;;;;;;9.40;0.90;;;;;;;1.99;73.66;103245.50;5068782;28;20045;-77
2023/02/07 08:17:22;;;;;;;11.30;0.98;;;;;;;1.99;73.90;103246.41;5064505;28;20058;-77
2023/02/07 08:19:49;;;;;;;4.13;0.77;;;;;;;2.01;73.46;103252.50;5073871;28;20049;-78
2023/02/07 08:22:16;;;;;;;7.45;1.02;;;;;;;2.03;73.94;103250.03;5069696;28;20048;-77
2023/02/07 08:24:43;;;;;;;9.82;1.20;;;;;;;2.02;73.60;103253.38;5062060;28;20045;-78
2023/02/07 08:27:11;;;;;;;10.23;1.17;;;;;;;2.06;74.30;103259.63;5071160;28;20059;-78
2023/02/07 08:29:38;;;;;;;12.52;1.50;;;;;;;2.07;73.95;103263.97;5064428;28;20151;-77
2023/02/07 08:32:05;;;;;;;7.45;1.15;;;;;;;2.07;74.11;103272.59;5061651;28;20415;-78
2023/02/07 08:34:36;;;;;;;13.25;1.75;;;;;;;2.10;73.52;103274.47;5078049;28;20511;-77
2023/02/07 08:37:04;;;;;;;10.52;1.48;;;;;;;2.12;73.51;103272.88;5076729;28;20102;-78
2023/02/07 08:39:31;;;;;;;4.55;1.05;;;;;;;2.08;73.85;103278.63;5074106;28;20044;-77
2023/02/07 08:41:58;;;;;;;6.65;1.08;;;;;;;2.15;73.59;103285.94;5057276;28;21004;-78
2023/02/07 08:44:26;;;;;;;6.47;1.15;;;;;;;2.16;73.63;103277.38;5071832;28;20381;-77
2023/02/07 08:46:53;;;;;;;6.43;2.15;;;;;;;2.17;73.73;103279.16;5070301;28;20059;-78
2023/02/07 08:49:20;;;;;;;10.68;1.63;;;;;;;2.18;74.34;103292.13;5060608;28;20045;-77
2023/02/07 08:51:47;;;;;;;10.90;2.35;;;;;;;2.16;73.90;103279.94;5066610;28;20053;-78
2023/02/07 08:54:14;;;;;;;11.65;1.15;;;;;;;2.19;73.78;103277.53;5068330;28;20045;-78
2023/02/07 08:56:41;;;;;;;6.72;0.85;;;;;;;2.22;73.72;103273.47;5070518;28;20779;-78
2023/02/07 08:59:08;;;;;;;6.32;1.10;;;;;;;2.23;73.69;103270.06;5064980;28;20052;-78
2023/02/07 09:01:36;;;;;;;8.48;1.30;;;;;;;2.25;74.17;103265.03;5068294;28;20404;-77
2023/02/07 09:04:03;;;;;;;9.68;1.45;;;;;;;2.26;74.44;103261.63;5061678;28;20045;-77
2023/02/07 09:06:30;;;;;;;7.60;1.20;;;;;;;2.27;73.82;103262.50;5059245;28;20048;-77
2023/02/07 09:08:57;;;;;;;3.10;0.80;;;;;;;2.29;73.78;103266.06;5064503;28;20047;-78
2023/02/07 09:11:24;;;;;;;4.90;0.80;;;;;;;2.29;73.91;103260.91;5067298;28;20044;-77
2023/02/07 09:13:51;;;;;;;11.73;1.08;;;;;;;2.32;74.30;103273.97;5062667;28;20047;-78
2023/02/07 09:16:18;;;;;;;9.00;1.10;;;;;;;2.34;74.07;103277.53;5062719;28;20048;-78
2023/02/07 09:18:46;;;;;;;8.15;1.08;;;;;;;2.34;73.90;103265.53;5057562;28;20411;-78
2023/02/07 09:21:13;;;;;;;8.38;1.15;;;;;;;2.36;73.93;103261.34;5059953;28;20053;-78
2023/02/07 09:23:40;;;;;;;10.80;1.15;;;;;;;2.37;74.04;103257.06;5059517;28;20040;-78
2023/02/07 09:26:09;;;;;;;7.60;1.30;;;;;;;2.39;74.21;103261.50;5072028;28;20087;-78
2023/02/07 09:28:36;;;;;;;4.22;0.75;;;;;;;2.40;73.77;103267.56;5065232;28;20502;-78
2023/02/07 09:31:08;;;;;;;3.25;0.90;;;;;;;2.41;74.25;103265.03;5065699;28;20127;-78
2023/02/07 09:33:35;;;;;;;7.55;1.27;;;;;;;2.42;74.20;103272.00;5071846;28;20040;-77
2023/02/07 09:36:04;;;;;;;5.53;0.80;;;;;;;2.44;73.79;103261.75;5067937;28;20051;-78
2023/02/07 09:38:31;;;;;;;8.07;1.65;;;;;;;2.46;74.08;103266.19;5068305;28;20037;-78
2023/02/07 09:40:59;;;;;;;6.20;1.00;;;;;;;2.46;73.85;103273.94;5064309;28;20041;-78
2023/02/07 09:43:33;;;;;;;3.13;0.75;;;;;;;2.50;74.16;103274.97;5078618;28;20044;-78
2023/02/07 09:46:03;;;;;;;3.58;0.55;;;;;;;2.51;74.18;103270.72;5058512;28;20044;-78
2023/02/07 09:48:44;;;;;;;5.88;1.50;;;;;;;2.52;74.24;103267.34;5058486;28;20115;-78
2023/02/07 09:51:15;;;;;;;7.70;0.80;;;;;;;2.54;74.25;103278.63;5073050;28;20384;-78
2023/02/07 09:53:47;;;;;;;2.65;0.52;;;;;;;2.54;74.60;103270.91;5063943;28;20040;-78
2023/02/07 09:56:18;;;;;;;3.58;0.52;;;;;;;2.56;74.32;103274.41;5065578;28;20514;-77
2023/02/07 09:58:51;;;;;;;5.05;1.38;;;;;;;2.57;74.32;103260.75;5073172;28;20044;-78
2023/02/07 10:01:22;;;;;;;3.58;0.93;;;;;;;2.58;73.97;103262.50;5072812;28;20162;-78
2023/02/07 10:04:07;;;;;;;3.33;0.80;;;;;;;2.60;74.21;103271.22;5073656;28;20040;-79
2023/02/07 10:06:36;;;;;;;7.90;0.70;;;;;;;2.60;74.21;103271.22;5067419;28;20071;-78
2023/02/07 10:09:03;;;;;;;6.32;1.10;;;;;;;2.61;73.90;103268.69;5069908;28;20051;-78
2023/02/07 10:11:42;;;;;;;6.30;0.80;;;;;;;2.62;74.33;103272.19;5073625;28;20048;-78
2023/02/07 10:14:22;;;;;;;3.72;0.52;;;;;;;2.64;74.03;103262.81;5068800;28;20049;-78
2023/02/07 10:17:01;;;;;;;5.28;1.60;;;;;;;2.64;74.12;103263.72;5066177;28;20053;-78
2023/02/07 10:19:41;;;;;;;9.50;1.00;;;;;;;2.64;73.85;103257.66;5073422;28;20123;-78
2023/02/07 10:22:20;;;;;;;5.50;0.77;;;;;;;2.66;73.71;103271.53;5068222;28;20047;-79
2023/02/07 10:25:17;;;;;;;6.45;0.75;;;;;;;2.68;74.28;103269.94;5061199;28;20049;-79
2023/02/07 10:27:48;;;;;;;;;;;;;;;2.68;73.76;103277.69;5065224;28;20044;-78
2023/02/07 10:30:20;;;;;;;3.03;1.00;;;;;;;2.68;74.20;103269.94;5062935;28;19930;-79
2023/02/07 10:32:48;;;;;;;4.00;0.70;;;;;;;2.68;74.29;103272.53;5058573;28;20124;-79
2023/02/07 10:35:18;;;;;;;3.60;0.70;;;;;;;2.69;73.60;103276.88;5069358;28;20051;-79
2023/02/07 10:37:49;;;;;;;5.22;0.95;;;;;;;2.70;73.77;103268.31;5068344;28;20074;-78
2023/02/07 10:40:21;;;;;;;4.72;1.05;;;;;;;2.70;73.98;103269.22;5068873;28;20074;-78
2023/02/07 10:42:59;;;;;;;6.72;1.00;;;;;;;2.72;74.12;103271.88;5064453;28;20484;-78
2023/02/07 10:45:26;;;;;;;3.08;0.70;;;;;;;2.70;74.11;103263.16;5063711;28;20053;-78
2023/02/07 10:47:53;;;;;;;4.45;1.25;;;;;;;2.72;74.08;103264.13;5068907;28;20050;-78
2023/02/07 10:50:22;;;;;;;3.90;0.80;;;;;;;2.72;73.85;103258.97;5065535;28;20126;-79
2023/02/07 10:52:53;;;;;;;3.08;1.10;;;;;;;2.72;74.31;103251.22;5063712;28;20392;-78
2023/02/07 10:55:36;;;;;;;6.18;0.77;;;;;;;2.73;74.12;103258.16;5070294;28;20049;-78
2023/02/07 10:58:03;;;;;;;4.07;1.10;;;;;;;2.71;74.10;103249.47;5062509;28;20056;-79
2023/02/07 11:00:31;;;;;;;1.83;1.00;;;;;;;2.67;73.78;103242.34;5071107;28;20055;-78
2023/02/07 11:03:02;;;;;;;6.18;0.80;;;;;;;2.75;73.94;103250.50;5062677;28;20055;-78
2023/02/07 11:05:38;;;;;;;7.30;1.10;;;;;;;2.75;73.65;103253.09;5060975;28;20059;-78
2023/02/07 11:08:18;;;;;;;6.28;1.55;;;;;;;2.76;74.21;103249.69;5063936;28;20048;-78
2023/02/07 11:10:48;;;;;;;5.63;1.00;;;;;;;2.75;74.01;103248.81;5061542;28;20048;-78
2023/02/07 11:13:17;;;;;;;4.45;1.35;;;;;;;2.77;73.84;103248.91;5056229;28;20048;-77
2023/02/07 11:15:51;;;;;;;8.68;1.42;;;;;;;2.78;73.57;103241.22;5062728;28;20784;-78
2023/02/07 11:18:36;;;;;;;8.45;1.27;;;;;;;2.79;74.41;103253.34;5063964;28;20044;-77
2023/02/07 11:21:08;;;;;;;4.53;1.23;;;;;;;2.80;74.33;103249.06;5059642;28;20120;-78
2023/02/07 11:23:36;;;;;;;6.90;1.35;;;;;;;2.80;73.89;103257.69;5059094;28;20048;-78
2023/02/07 11:26:04;;;;;;;2.72;0.90;;;;;;;2.81;74.20;103259.44;5061583;28;20124;-78
2023/02/07 11:28:33;;;;;;;6.82;0.90;;;;;;;2.82;73.97;103252.63;5059628;28;20044;-78
2023/02/07 11:31:06;;;;;;;5.85;0.95;;;;;;;2.73;73.88;103232.34;5055350;28;20049;-78
2023/02/07 11:33:35;;;;;;;6.32;1.40;;;;;;;2.82;74.25;103238.00;5059628;28;20041;-76
2023/02/07 11:36:04;;;;;;;7.38;1.10;;;;;;;2.83;74.24;103242.38;5060295;28;20090;-77
2023/02/07 11:38:36;;;;;;;8.00;0.93;;;;;;;2.83;74.44;103241.47;5066574;28;20052;-78
2023/02/07 11:41:05;;;;;;;4.82;0.95;;;;;;;2.84;74.25;103246.69;5061187;28;20049;-78
2023/02/07 11:43:33;;;;;;;5.25;1.40;;;;;;;2.82;74.37;103232.84;5061641;28;20086;-78